createdAt,value
2022-09-22T00:00:21.916Z,0
2022-09-22T00:01:21.486Z,0
2022-09-22T00:02:22.018Z,0
2022-09-22T00:03:21.632Z,0
2022-09-22T00:04:21.552Z,0
2022-09-22T00:05:21.775Z,0
2022-09-22T00:06:21.510Z,0
2022-09-22T00:07:21.491Z,0
2022-09-22T00:08:21.479Z,0
2022-09-22T00:09:20.710Z,0
2022-09-22T00:10:21.186Z,0
2022-09-22T00:11:21.183Z,0
2022-09-22T00:12:21.413Z,0
2022-09-22T00:13:20.636Z,0
2022-09-22T00:14:21.121Z,0
2022-09-22T00:15:20.849Z,0
2022-09-22T00:16:21.525Z,0
2022-09-22T00:17:21.070Z,0
2022-09-22T00:18:21.052Z,0
2022-09-22T00:19:21.368Z,0
2022-09-22T00:20:20.783Z,0
2022-09-22T00:21:21.011Z,0
2022-09-22T00:22:21.245Z,0
2022-09-22T00:23:20.738Z,0
2022-09-22T00:24:20.969Z,0
2022-09-22T00:25:21.211Z,0
2022-09-22T00:26:20.673Z,0
2022-09-22T00:27:20.918Z,0
2022-09-22T00:28:20.645Z,0
2022-09-22T00:29:20.878Z,0
2022-09-22T00:30:21.121Z,0
2022-09-22T00:31:21.448Z,0
2022-09-22T00:32:20.888Z,0
2022-09-22T00:33:21.076Z,0
2022-09-22T00:34:20.549Z,0
2022-09-22T00:35:21.385Z,0
2022-09-22T00:36:21.224Z,0
2022-09-22T00:37:20.752Z,0
2022-09-22T00:38:20.736Z,0
2022-09-22T00:39:20.978Z,0
2022-09-22T00:40:21.094Z,0
2022-09-22T00:41:20.430Z,0
2022-09-22T00:42:20.425Z,0
2022-09-22T00:43:20.657Z,0
2022-09-22T00:44:20.892Z,0
2022-09-22T00:45:20.370Z,0
2022-09-22T00:46:21.004Z,0
2022-09-22T00:47:20.850Z,0
2022-09-22T00:48:20.631Z,0
2022-09-22T00:49:20.567Z,0
2022-09-22T00:50:20.561Z,0
2022-09-22T00:51:20.860Z,0
2022-09-22T00:52:20.522Z,0
2022-09-22T00:53:20.754Z,0
2022-09-22T00:54:20.486Z,0
2022-09-22T00:55:20.718Z,0
2022-09-22T00:56:20.964Z,0
2022-09-22T00:57:20.433Z,0
2022-09-22T00:58:20.672Z,0
2022-09-22T00:59:20.146Z,0
2022-09-22T01:00:20.644Z,0
2022-09-22T01:01:20.973Z,0
2022-09-22T01:02:21.087Z,0
2022-09-22T01:03:20.405Z,0
2022-09-22T01:04:20.375Z,0
2022-09-22T01:05:20.303Z,0
2022-09-22T01:06:20.541Z,0
2022-09-22T01:07:20.848Z,0
2022-09-22T01:08:19.747Z,0
2022-09-22T01:09:20.753Z,0
2022-09-22T01:10:20.218Z,0
2022-09-22T01:11:20.471Z,0
2022-09-22T01:12:19.933Z,0
2022-09-22T01:13:20.169Z,0
2022-09-22T01:14:20.166Z,0
2022-09-22T01:15:20.142Z,0
2022-09-22T01:16:20.794Z,0
2022-09-22T01:17:20.107Z,0
2022-09-22T01:18:20.099Z,0
2022-09-22T01:19:19.822Z,0
2022-09-22T01:20:20.110Z,0
2022-09-22T01:21:20.370Z,0
2022-09-22T01:22:19.767Z,0
2022-09-22T01:23:20.675Z,0
2022-09-22T01:24:19.991Z,0
2022-09-22T01:25:19.973Z,0
2022-09-22T01:26:20.513Z,0
2022-09-22T01:27:19.435Z,0
2022-09-22T01:28:19.933Z,0
2022-09-22T01:29:19.662Z,0
2022-09-22T01:30:19.918Z,0
2022-09-22T01:31:20.233Z,0
2022-09-22T01:32:20.025Z,0
2022-09-22T01:33:20.457Z,0
2022-09-22T01:34:51.399Z,0
2022-09-22T01:35:19.568Z,0
2022-09-22T01:36:19.854Z,0
2022-09-22T01:37:19.785Z,0
2022-09-22T01:38:19.517Z,0
2022-09-22T01:39:20.333Z,0
2022-09-22T01:40:20.012Z,0
2022-09-22T01:41:19.975Z,0
2022-09-22T01:42:19.702Z,0
2022-09-22T01:43:19.429Z,0
2022-09-22T01:44:19.675Z,0
2022-09-22T01:45:19.654Z,0
2022-09-22T01:46:20.381Z,0
2022-09-22T01:47:19.885Z,0
2022-09-22T01:48:19.866Z,0
2022-09-22T01:49:20.104Z,0
2022-09-22T01:50:19.834Z,0
2022-09-22T01:51:19.313Z,0
2022-09-22T01:52:19.600Z,0
2022-09-22T01:53:19.028Z,0
2022-09-22T01:54:19.511Z,0
2022-09-22T01:55:20.083Z,0
2022-09-22T01:56:19.742Z,0
2022-09-22T01:57:19.719Z,0
2022-09-22T01:58:19.206Z,0
2022-09-22T01:59:19.184Z,0
2022-09-22T02:00:19.684Z,0
2022-09-22T02:01:24.391Z,0
2022-09-22T02:02:19.836Z,0
2022-09-22T02:03:19.371Z,0
2022-09-22T02:04:19.613Z,0
2022-09-22T02:05:19.078Z,0
2022-09-22T02:06:19.576Z,0
2022-09-22T02:07:19.053Z,0
2022-09-22T02:08:19.609Z,0
2022-09-22T02:09:19.276Z,0
2022-09-22T02:10:19.005Z,0
2022-09-22T02:11:19.578Z,0
2022-09-22T02:12:19.223Z,0
2022-09-22T02:13:18.953Z,0
2022-09-22T02:14:19.190Z,0
2022-09-22T02:15:18.922Z,0
2022-09-22T02:16:19.542Z,0
2022-09-22T02:17:18.897Z,0
2022-09-22T02:18:19.383Z,0
2022-09-22T02:19:22.725Z,0
2022-09-22T02:20:18.844Z,0
2022-09-22T02:21:18.821Z,0
2022-09-22T02:22:19.065Z,0
2022-09-22T02:23:19.313Z,0
2022-09-22T02:24:19.593Z,0
2022-09-22T02:25:18.777Z,0
2022-09-22T02:26:19.003Z,0
2022-09-22T02:27:19.315Z,0
2022-09-22T02:28:18.461Z,0
2022-09-22T02:29:18.952Z,0
2022-09-22T02:30:18.947Z,0
2022-09-22T02:31:29.270Z,0
2022-09-22T02:32:19.077Z,0
2022-09-22T02:33:19.143Z,0
2022-09-22T02:34:18.617Z,0
2022-09-22T02:35:19.366Z,0
2022-09-22T02:36:18.593Z,0
2022-09-22T02:37:18.821Z,0
2022-09-22T02:38:19.059Z,0
2022-09-22T02:39:18.790Z,0
2022-09-22T02:40:19.595Z,0
2022-09-22T02:41:19.012Z,0
2022-09-22T02:42:19.001Z,0
2022-09-22T02:43:19.313Z,0
2022-09-22T02:44:18.715Z,0
2022-09-22T02:45:18.440Z,0
2022-09-22T02:46:19.410Z,0
2022-09-22T02:47:18.406Z,0
2022-09-22T02:48:18.393Z,0
2022-09-22T02:49:18.888Z,0
2022-09-22T02:50:19.127Z,0
2022-09-22T02:51:18.857Z,0
2022-09-22T02:52:18.368Z,0
2022-09-22T02:53:18.571Z,0
2022-09-22T02:54:18.807Z,0
2022-09-22T02:55:18.836Z,0
2022-09-22T02:56:18.825Z,0
2022-09-22T02:57:18.258Z,0
2022-09-22T02:58:18.502Z,0
2022-09-22T02:59:19.221Z,0
2022-09-22T03:00:18.336Z,0
2022-09-22T03:01:18.802Z,0
2022-09-22T03:02:18.190Z,0
2022-09-22T03:03:18.160Z,0
2022-09-22T03:04:18.665Z,0
2022-09-22T03:05:19.143Z,0
2022-09-22T03:06:18.357Z,0
2022-09-22T03:07:18.604Z,0
2022-09-22T03:08:18.579Z,0
2022-09-22T03:09:18.068Z,0
2022-09-22T03:10:18.810Z,0
2022-09-22T03:11:18.545Z,0
2022-09-22T03:12:18.821Z,0
2022-09-22T03:13:25.759Z,0
2022-09-22T03:14:18.820Z,0
2022-09-22T03:15:18.561Z,0
2022-09-22T03:16:18.456Z,0
2022-09-22T03:17:17.930Z,0
2022-09-22T03:18:18.712Z,0
2022-09-22T03:19:18.397Z,0
2022-09-22T03:20:18.645Z,0
2022-09-22T03:21:18.113Z,0
2022-09-22T03:22:17.839Z,0
2022-09-22T03:23:18.331Z,0
2022-09-22T03:24:17.545Z,0
2022-09-22T03:25:18.303Z,0
2022-09-22T03:26:18.028Z,0
2022-09-22T03:27:18.267Z,0
2022-09-22T03:28:18.057Z,0
2022-09-22T03:29:18.317Z,0
2022-09-22T03:30:18.228Z,0
2022-09-22T03:31:18.919Z,0
2022-09-22T03:32:18.187Z,0
2022-09-22T03:49:32.160Z,0
2022-09-22T03:50:31.899Z,0
2022-09-22T03:51:31.886Z,0
2022-09-22T03:52:31.881Z,0
2022-09-22T03:53:31.078Z,0
2022-09-22T03:54:31.856Z,0
2022-09-22T03:55:31.310Z,0
2022-09-22T03:56:31.581Z,0
2022-09-22T03:57:31.262Z,0
2022-09-22T03:58:30.978Z,0
2022-09-22T03:59:30.982Z,0
2022-09-22T04:00:31.212Z,0
2022-09-22T04:01:31.621Z,0
2022-09-22T04:02:31.794Z,0
2022-09-22T04:03:31.443Z,0
2022-09-22T04:04:30.884Z,0
2022-09-22T04:05:31.748Z,0
2022-09-22T04:06:31.093Z,0
2022-09-22T04:07:31.346Z,0
2022-09-22T04:08:31.311Z,0
2022-09-22T04:09:31.050Z,0
2022-09-22T04:10:31.298Z,0
2022-09-22T04:11:31.276Z,0
2022-09-22T04:12:31.297Z,0
2022-09-22T04:13:30.739Z,0
2022-09-22T04:14:30.711Z,0
2022-09-22T04:15:31.207Z,0
2022-09-22T04:16:31.330Z,0
2022-09-22T04:17:30.667Z,0
2022-09-22T04:18:30.897Z,0
2022-09-22T04:19:30.911Z,0
2022-09-22T04:20:30.868Z,0
2022-09-22T04:21:31.506Z,0
2022-09-22T04:22:31.349Z,0
2022-09-22T04:23:30.555Z,0
2022-09-22T04:24:30.792Z,0
2022-09-22T04:25:30.517Z,0
2022-09-22T04:26:30.762Z,0
2022-09-22T04:27:30.743Z,0
2022-09-22T04:28:30.976Z,0
2022-09-22T04:29:31.219Z,0
2022-09-22T04:30:30.955Z,0
2022-09-22T04:31:30.671Z,0
2022-09-22T04:32:30.671Z,0
2022-09-22T04:33:30.917Z,0
2022-09-22T04:34:30.365Z,0
2022-09-22T04:35:30.357Z,0
2022-09-22T04:36:30.850Z,0
2022-09-22T04:37:31.213Z,0
2022-09-22T04:38:30.825Z,0
2022-09-22T04:39:33.368Z,0
2022-09-22T04:40:31.027Z,0
2022-09-22T04:41:30.511Z,0
2022-09-22T04:42:30.493Z,0
2022-09-22T04:43:29.973Z,0
2022-09-22T04:44:34.666Z,0
2022-09-22T04:45:30.440Z,0
2022-09-22T04:46:30.815Z,0
2022-09-22T04:47:30.919Z,0
2022-09-22T04:48:30.659Z,0
2022-09-22T04:49:30.124Z,0
2022-09-22T04:50:30.403Z,0
2022-09-22T04:51:30.352Z,0
2022-09-22T04:52:30.578Z,0
2022-09-22T04:53:30.942Z,0
2022-09-22T04:54:30.296Z,5
2022-09-22T04:55:30.535Z,5
2022-09-22T04:56:30.016Z,5
2022-09-22T04:57:29.992Z,5
2022-09-22T04:58:30.737Z,5
2022-09-22T04:59:30.461Z,5
2022-09-22T05:00:30.271Z,5
2022-09-22T05:01:30.838Z,5
2022-09-22T05:02:30.416Z,5
2022-09-22T05:03:32.257Z,10
2022-09-22T05:04:30.125Z,10
2022-09-22T05:05:30.753Z,10
2022-09-22T05:06:30.346Z,10
2022-09-22T05:07:30.326Z,10
2022-09-22T05:08:30.065Z,10
2022-09-22T05:09:30.692Z,15
2022-09-22T05:10:30.197Z,15
2022-09-22T05:11:29.750Z,15
2022-09-22T05:12:30.003Z,15
2022-09-22T05:13:30.236Z,15
2022-09-22T05:14:35.355Z,15
2022-09-22T05:15:30.451Z,15
2022-09-22T05:16:30.775Z,20
2022-09-22T05:17:29.922Z,20
2022-09-22T05:18:30.145Z,20
2022-09-22T05:19:30.383Z,20
2022-09-22T05:20:29.947Z,20
2022-09-22T05:21:29.835Z,20
2022-09-22T05:22:30.338Z,20
2022-09-22T05:23:30.057Z,25
2022-09-22T05:24:29.787Z,25
2022-09-22T05:25:30.541Z,25
2022-09-22T05:26:29.779Z,25
2022-09-22T05:27:29.733Z,25
2022-09-22T05:28:30.233Z,30
2022-09-22T05:29:35.035Z,30
2022-09-22T05:30:29.693Z,30
2022-09-22T05:31:30.276Z,30
2022-09-22T05:32:29.912Z,35
2022-09-22T05:33:29.632Z,35
2022-09-22T05:34:29.622Z,40
2022-09-22T05:35:33.064Z,40
2022-09-22T05:36:29.579Z,40
2022-09-22T05:37:30.085Z,40
2022-09-22T05:38:29.812Z,45
2022-09-22T05:39:29.792Z,50
2022-09-22T05:40:30.183Z,50
2022-09-22T05:41:30.210Z,50
2022-09-22T05:42:29.737Z,50
2022-09-22T05:43:29.478Z,50
2022-09-22T05:44:29.455Z,45
2022-09-22T05:45:30.220Z,45
2022-09-22T05:46:29.277Z,45
2022-09-22T05:47:29.658Z,50
2022-09-22T05:48:35.393Z,50
2022-09-22T05:49:28.893Z,50
2022-09-22T05:50:29.629Z,55
2022-09-22T05:51:29.344Z,55
2022-09-22T05:52:29.325Z,65
2022-09-22T05:53:29.563Z,75
2022-09-22T05:54:32.530Z,80
2022-09-22T05:55:29.019Z,80
2022-09-22T05:56:29.506Z,80
2022-09-22T05:57:29.872Z,80
2022-09-22T05:58:29.226Z,85
2022-09-22T05:59:28.955Z,85
2022-09-22T06:00:28.941Z,90
2022-09-22T06:01:29.532Z,85
2022-09-22T06:02:35.667Z,75
2022-09-22T06:03:29.160Z,70
2022-09-22T06:04:29.401Z,65
2022-09-22T06:05:29.628Z,70
2022-09-22T06:06:29.350Z,70
2022-09-22T06:07:28.571Z,80
2022-09-22T06:08:29.069Z,90
2022-09-22T06:09:28.541Z,95
2022-09-22T06:10:29.364Z,105
2022-09-22T06:11:29.274Z,110
2022-09-22T06:12:29.261Z,105
2022-09-22T06:13:29.621Z,95
2022-09-22T06:14:29.226Z,85
2022-09-22T06:15:28.747Z,75
2022-09-22T06:16:29.290Z,70
2022-09-22T06:17:28.941Z,65
2022-09-22T06:18:34.146Z,65
2022-09-22T06:19:28.899Z,65
2022-09-22T06:20:28.985Z,65
2022-09-22T06:21:28.871Z,60
2022-09-22T06:22:28.856Z,60
2022-09-22T06:23:28.833Z,60
2022-09-22T06:24:29.335Z,60
2022-09-22T06:25:29.070Z,60
2022-09-22T06:26:28.811Z,60
2022-09-22T06:27:29.026Z,60
2022-09-22T06:28:29.017Z,60
2022-09-22T06:29:29.396Z,60
2022-09-22T06:30:28.805Z,65
2022-09-22T06:31:29.153Z,65
2022-09-22T06:32:28.701Z,65
2022-09-22T06:33:28.685Z,65
2022-09-22T06:34:28.403Z,65
2022-09-22T06:35:28.907Z,65
2022-09-22T06:36:28.647Z,70
2022-09-22T06:37:28.623Z,75
2022-09-22T06:38:28.861Z,75
2022-09-22T06:39:29.097Z,75
2022-09-22T06:40:28.989Z,70
2022-09-22T06:41:28.828Z,70
2022-09-22T06:42:28.799Z,75
2022-09-22T06:43:28.790Z,75
2022-09-22T06:44:28.513Z,75
2022-09-22T06:45:29.428Z,75
2022-09-22T06:46:28.122Z,75
2022-09-22T06:47:28.471Z,75
2022-09-22T06:48:28.794Z,80
2022-09-22T06:49:28.444Z,85
2022-09-22T06:50:31.790Z,80
2022-09-22T06:51:28.662Z,75
2022-09-22T06:52:28.392Z,75
2022-09-22T06:53:32.395Z,75
2022-09-22T06:54:32.403Z,75
2022-09-22T06:55:28.335Z,75
2022-09-22T06:56:28.329Z,75
2022-09-22T06:57:28.310Z,75
2022-09-22T06:58:28.550Z,75
2022-09-22T06:59:29.416Z,75
2022-09-22T07:00:28.027Z,75
2022-09-22T07:01:29.552Z,75
2022-09-22T07:02:28.922Z,75
2022-09-22T07:03:28.471Z,75
2022-09-22T07:04:28.203Z,75
2022-09-22T07:05:28.445Z,75
2022-09-22T07:06:29.879Z,75
2022-09-22T07:07:28.443Z,75
2022-09-22T07:08:27.893Z,75
2022-09-22T07:09:28.188Z,75
2022-09-22T07:10:27.951Z,75
2022-09-22T07:11:28.705Z,75
2022-09-22T07:12:28.092Z,80
2022-09-22T07:13:28.322Z,80
2022-09-22T07:14:28.050Z,80
2022-09-22T07:15:28.301Z,80
2022-09-22T07:16:28.933Z,80
2022-09-22T07:17:28.667Z,80
2022-09-22T07:18:27.734Z,80
2022-09-22T07:19:27.732Z,80
2022-09-22T07:20:28.282Z,80
2022-09-22T07:21:28.427Z,80
2022-09-22T07:22:27.939Z,80
2022-09-22T07:23:28.105Z,80
2022-09-22T07:24:27.913Z,80
2022-09-22T07:25:27.885Z,80
2022-09-22T07:26:27.615Z,80
2022-09-22T07:27:28.132Z,85
2022-09-22T07:28:28.104Z,85
2022-09-22T07:29:28.111Z,85
2022-09-22T07:30:28.140Z,85
2022-09-22T07:31:33.800Z,85
2022-09-22T07:32:27.782Z,85
2022-09-22T07:33:28.414Z,85
2022-09-22T07:34:27.782Z,85
2022-09-22T07:35:27.487Z,85
2022-09-22T07:36:27.727Z,85
2022-09-22T07:37:27.972Z,85
2022-09-22T07:38:27.970Z,85
2022-09-22T07:39:27.439Z,85
2022-09-22T07:40:28.158Z,85
2022-09-22T07:41:27.913Z,85
2022-09-22T07:42:27.896Z,85
2022-09-22T07:43:27.626Z,85
2022-09-22T07:44:28.124Z,85
2022-09-22T07:45:28.106Z,85
2022-09-22T07:46:27.713Z,90
2022-09-22T07:47:27.826Z,90
2022-09-22T07:48:27.555Z,90
2022-09-22T07:49:28.199Z,90
2022-09-22T07:50:27.882Z,85
2022-09-22T07:51:27.774Z,85
2022-09-22T07:52:28.106Z,85
2022-09-22T07:53:27.813Z,85
2022-09-22T07:54:27.918Z,90
2022-09-22T07:55:27.539Z,90
2022-09-22T07:56:28.018Z,90
2022-09-22T07:57:28.208Z,90
2022-09-22T07:58:27.568Z,90
2022-09-22T07:59:28.028Z,90
2022-09-22T08:00:27.675Z,90
2022-09-22T08:01:27.448Z,90
2022-09-22T08:02:27.685Z,90
2022-09-22T08:03:27.346Z,90
2022-09-22T08:04:57.332Z,90
2022-09-22T08:05:27.871Z,90
2022-09-22T08:06:30.397Z,95
2022-09-22T08:07:27.551Z,95
2022-09-22T08:08:27.546Z,95
2022-09-22T08:09:26.765Z,95
2022-09-22T08:10:27.840Z,95
2022-09-22T08:11:27.016Z,95
2022-09-22T08:12:27.495Z,95
2022-09-22T08:13:27.467Z,95
2022-09-22T08:14:27.454Z,95
2022-09-22T08:15:31.903Z,100
2022-09-22T08:16:27.947Z,105
2022-09-22T08:17:27.807Z,100
2022-09-22T08:18:27.733Z,95
2022-09-22T08:19:27.151Z,95
2022-09-22T08:20:27.458Z,95
2022-09-22T08:21:27.417Z,100
2022-09-22T08:22:26.838Z,110
2022-09-22T08:23:27.082Z,110
2022-09-22T08:24:28.464Z,125
2022-09-22T08:25:27.049Z,145
2022-09-22T08:26:27.041Z,160
2022-09-22T08:27:27.032Z,130
2022-09-22T08:28:27.020Z,110
2022-09-22T08:29:27.374Z,130
2022-09-22T08:30:26.999Z,145
2022-09-22T08:31:27.265Z,135
2022-09-22T08:32:27.336Z,120
2022-09-22T08:33:26.998Z,125
2022-09-22T08:34:27.103Z,145
2022-09-22T08:35:26.693Z,150
2022-09-22T08:36:27.558Z,145
2022-09-22T08:37:27.504Z,170
2022-09-22T08:38:26.386Z,190
2022-09-22T08:39:26.731Z,175
2022-09-22T08:40:27.014Z,155
2022-09-22T08:41:27.124Z,145
2022-09-22T08:42:26.857Z,145
2022-09-22T08:43:27.098Z,140
2022-09-22T08:44:27.084Z,140
2022-09-22T08:45:31.456Z,150
2022-09-22T08:46:27.120Z,145
2022-09-22T08:47:27.312Z,145
2022-09-22T08:48:27.042Z,155
2022-09-22T08:49:27.284Z,165
2022-09-22T08:50:27.282Z,150
2022-09-22T08:51:26.760Z,150
2022-09-22T08:52:27.342Z,160
2022-09-22T08:53:27.293Z,165
2022-09-22T08:54:26.735Z,170
2022-09-22T08:55:26.715Z,155
2022-09-22T08:56:26.717Z,150
2022-09-22T08:57:26.972Z,145
2022-09-22T08:58:26.689Z,130
2022-09-22T08:59:26.422Z,145
2022-09-22T09:00:27.472Z,150
2022-09-22T09:01:27.583Z,150
2022-09-22T09:02:26.634Z,140
2022-09-22T09:03:26.882Z,130
2022-09-22T09:04:26.872Z,125
2022-09-22T09:05:26.605Z,125
2022-09-22T09:06:26.905Z,125
2022-09-22T09:07:26.846Z,145
2022-09-22T09:08:27.193Z,130
2022-09-22T09:09:26.617Z,115
2022-09-22T09:10:27.098Z,115
2022-09-22T09:11:27.081Z,115
2022-09-22T09:12:26.787Z,120
2022-09-22T09:13:26.855Z,125
2022-09-22T09:14:26.518Z,135
2022-09-22T09:15:26.772Z,130
2022-09-22T09:16:26.785Z,155
2022-09-22T09:17:26.739Z,155
2022-09-22T09:18:26.727Z,145
2022-09-22T09:19:26.719Z,135
2022-09-22T09:20:26.573Z,135
2022-09-22T09:21:26.457Z,140
2022-09-22T09:22:26.948Z,145
2022-09-22T09:25:25.368Z,160
2022-09-22T09:25:37.839Z,160
2022-09-22T09:26:35.662Z,160
2022-09-22T09:27:36.152Z,155
2022-09-22T09:28:37.421Z,170
2022-09-22T09:29:36.146Z,175
2022-09-22T09:30:35.660Z,200
2022-09-22T09:31:36.627Z,195
2022-09-22T09:32:36.105Z,190
2022-09-22T09:33:35.837Z,200
2022-09-22T09:34:35.610Z,195
2022-09-22T09:35:39.583Z,175
2022-09-22T09:36:35.816Z,160
2022-09-22T09:37:35.807Z,135
2022-09-22T09:38:35.796Z,105
2022-09-22T09:39:36.036Z,105
2022-09-22T09:40:36.263Z,95
2022-09-22T09:41:36.376Z,95
2022-09-22T09:42:35.509Z,95
2022-09-22T09:43:35.749Z,95
2022-09-22T09:44:35.487Z,105
2022-09-22T09:45:35.476Z,110
2022-09-22T09:46:36.166Z,110
2022-09-22T09:47:35.703Z,115
2022-09-22T09:48:35.979Z,115
2022-09-22T09:49:35.950Z,110
2022-09-22T09:50:35.674Z,115
2022-09-22T09:51:42.056Z,120
2022-09-22T09:52:35.417Z,135
2022-09-22T09:53:40.986Z,165
2022-09-22T09:54:35.661Z,185
2022-09-22T09:55:36.057Z,195
2022-09-22T09:56:35.648Z,200
2022-09-22T09:57:37.888Z,200
2022-09-22T09:58:35.602Z,180
2022-09-22T09:59:35.608Z,160
2022-09-22T10:00:35.761Z,175
2022-09-22T10:01:36.152Z,180
2022-09-22T10:02:35.566Z,180
2022-09-22T10:03:35.851Z,195
2022-09-22T10:04:35.024Z,210
2022-09-22T10:05:35.807Z,230
2022-09-22T10:06:35.533Z,250
2022-09-22T10:07:35.381Z,275
2022-09-22T10:08:35.766Z,295
2022-09-22T10:09:35.243Z,325
2022-09-22T10:10:35.643Z,345
2022-09-22T10:11:35.476Z,355
2022-09-22T10:12:34.981Z,355
2022-09-22T10:13:36.097Z,345
2022-09-22T10:14:35.706Z,330
2022-09-22T10:15:35.595Z,325
2022-09-22T10:16:35.456Z,315
2022-09-22T10:17:35.169Z,305
2022-09-22T10:18:35.668Z,295
2022-09-22T10:19:35.943Z,295
2022-09-22T10:20:35.183Z,290
2022-09-22T10:21:35.644Z,295
2022-09-22T10:22:41.304Z,295
2022-09-22T10:23:35.886Z,300
2022-09-22T10:24:34.840Z,295
2022-09-22T10:25:35.342Z,295
2022-09-22T10:26:35.772Z,300
2022-09-22T10:27:35.836Z,300
2022-09-22T10:28:35.438Z,295
2022-09-22T10:29:35.933Z,295
2022-09-22T10:30:35.605Z,305
2022-09-22T10:31:35.550Z,295
2022-09-22T10:32:35.565Z,290
2022-09-22T10:33:35.032Z,275
2022-09-22T10:34:35.101Z,265
2022-09-22T10:35:35.267Z,250
2022-09-22T10:36:35.253Z,245
2022-09-22T10:37:35.257Z,245
2022-09-22T10:38:35.206Z,240
2022-09-22T10:39:35.245Z,230
2022-09-22T10:40:35.995Z,225
2022-09-22T10:41:35.225Z,220
2022-09-22T10:42:35.495Z,215
2022-09-22T10:43:35.458Z,210
2022-09-22T10:44:56.493Z,205
2022-09-22T10:45:35.233Z,180
2022-09-22T10:46:36.027Z,185
2022-09-22T10:47:36.189Z,185
2022-09-22T10:48:35.439Z,195
2022-09-22T10:49:35.153Z,195
2022-09-22T10:50:35.301Z,195
2022-09-22T10:51:35.392Z,195
2022-09-22T10:52:35.639Z,185
2022-09-22T10:53:35.118Z,175
2022-09-22T10:54:35.397Z,170
2022-09-22T10:55:35.642Z,165
2022-09-22T10:56:35.122Z,165
2022-09-22T10:57:35.089Z,150
2022-09-22T10:58:35.083Z,155
2022-09-22T10:59:35.111Z,160
2022-09-22T11:00:41.955Z,145
2022-09-22T11:01:36.048Z,135
2022-09-22T11:02:34.802Z,130
2022-09-22T11:03:35.320Z,115
2022-09-22T11:04:35.648Z,110
2022-09-22T11:05:35.046Z,105
2022-09-22T11:06:35.025Z,110
2022-09-22T11:07:35.542Z,115
2022-09-22T11:08:34.502Z,115
2022-09-22T11:09:35.589Z,110
2022-09-22T11:10:34.489Z,110
2022-09-22T11:11:38.999Z,115
2022-09-22T11:12:34.743Z,115
2022-09-22T11:13:34.996Z,115
2022-09-22T11:14:35.478Z,115
2022-09-22T11:15:34.837Z,115
2022-09-22T11:16:35.324Z,115
2022-09-22T11:17:35.213Z,115
2022-09-22T11:18:39.644Z,115
2022-09-22T11:19:35.428Z,115
2022-09-22T11:20:34.928Z,115
2022-09-22T11:21:35.159Z,120
2022-09-22T11:22:35.421Z,120
2022-09-22T11:23:35.020Z,120
2022-09-22T11:24:35.150Z,120
2022-09-22T11:25:34.894Z,120
2022-09-22T11:26:35.395Z,120
2022-09-22T11:27:34.860Z,120
2022-09-22T11:28:34.853Z,120
2022-09-22T11:29:34.859Z,120
2022-09-22T11:30:34.352Z,120
2022-09-22T11:31:35.083Z,120
2022-09-22T11:32:35.440Z,120
2022-09-22T11:33:35.404Z,120
2022-09-22T11:34:34.807Z,125
2022-09-22T11:35:34.545Z,135
2022-09-22T11:36:34.801Z,140
2022-09-22T11:37:35.133Z,145
2022-09-22T11:38:34.851Z,155
2022-09-22T11:39:35.272Z,160
2022-09-22T11:40:34.977Z,175
2022-09-22T11:41:35.021Z,195
2022-09-22T11:42:34.991Z,215
2022-09-22T11:43:35.241Z,250
2022-09-22T11:44:34.735Z,270
2022-09-22T11:45:34.474Z,280
2022-09-22T11:46:35.144Z,285
2022-09-22T11:47:34.702Z,290
2022-09-22T11:48:35.651Z,285
2022-09-22T11:49:34.454Z,265
2022-09-22T11:50:34.464Z,255
2022-09-22T11:51:34.926Z,245
2022-09-22T11:52:34.409Z,240
2022-09-22T11:53:34.692Z,225
2022-09-22T11:54:34.642Z,220
2022-09-22T11:55:34.423Z,200
2022-09-22T11:56:34.626Z,190
2022-09-22T11:57:35.137Z,170
2022-09-22T11:58:34.104Z,165
2022-09-22T11:59:34.935Z,165
2022-09-22T12:00:34.600Z,185
2022-09-22T12:01:34.855Z,180
2022-09-22T12:02:35.130Z,175
2022-09-22T12:03:35.928Z,175
2022-09-22T12:04:34.930Z,175
2022-09-22T12:05:34.844Z,170
2022-09-22T12:06:34.551Z,170
2022-09-22T12:07:34.300Z,170
2022-09-22T12:08:35.050Z,175
2022-09-22T12:09:41.338Z,175
2022-09-22T12:10:34.779Z,180
2022-09-22T12:11:34.260Z,180
2022-09-22T12:12:34.512Z,185
2022-09-22T12:13:34.253Z,185
2022-09-22T12:14:34.485Z,180
2022-09-22T12:15:35.169Z,180
2022-09-22T12:16:34.480Z,180
2022-09-22T12:17:34.498Z,170
2022-09-22T12:18:33.957Z,170
2022-09-22T12:19:34.481Z,170
2022-09-22T12:20:34.843Z,160
2022-09-22T12:21:34.981Z,155
2022-09-22T12:22:34.968Z,145
2022-09-22T12:23:34.946Z,140
2022-09-22T12:24:34.927Z,135
2022-09-22T12:25:55.602Z,135
2022-09-22T12:26:34.665Z,130
2022-09-22T12:27:34.393Z,120
2022-09-22T12:28:34.127Z,115
2022-09-22T12:29:34.370Z,110
2022-09-22T12:30:34.626Z,105
2022-09-22T12:31:34.137Z,110
2022-09-22T12:32:34.102Z,110
2022-09-22T12:33:34.089Z,105
2022-09-22T12:34:34.084Z,105
2022-09-22T12:35:38.796Z,105
2022-09-22T12:36:34.323Z,105
2022-09-22T12:37:34.849Z,100
2022-09-22T12:38:34.306Z,100
2022-09-22T12:39:34.548Z,100
2022-09-22T12:40:34.144Z,100
2022-09-22T12:41:34.277Z,100
2022-09-22T12:42:34.275Z,100
2022-09-22T12:43:34.513Z,100
2022-09-22T12:44:34.516Z,100
2022-09-22T12:45:33.979Z,100
2022-09-22T12:46:34.486Z,100
2022-09-22T12:47:34.735Z,100
2022-09-22T12:48:34.486Z,100
2022-09-22T12:49:34.457Z,105
2022-09-22T12:50:34.454Z,105
2022-09-22T12:51:34.548Z,105
2022-09-22T12:52:34.437Z,105
2022-09-22T12:53:34.941Z,105
2022-09-22T12:54:34.425Z,105
2022-09-22T12:55:34.665Z,105
2022-09-22T12:56:33.901Z,105
2022-09-22T12:57:34.390Z,100
2022-09-22T12:58:34.126Z,100
2022-09-22T12:59:34.121Z,100
2022-09-22T13:00:39.892Z,100
2022-09-22T13:01:35.529Z,100
2022-09-22T13:02:34.649Z,105
2022-09-22T13:03:34.344Z,110
2022-09-22T13:04:33.821Z,115
2022-09-22T13:05:34.063Z,115
2022-09-22T13:06:34.312Z,115
2022-09-22T13:07:34.669Z,120
2022-09-22T13:08:34.040Z,125
2022-09-22T13:09:34.569Z,130
2022-09-22T13:10:34.313Z,120
2022-09-22T13:11:34.280Z,110
2022-09-22T13:12:34.281Z,105
2022-09-22T13:13:34.263Z,105
2022-09-22T13:14:33.987Z,105
2022-09-22T13:15:33.750Z,110
2022-09-22T13:16:33.964Z,110
2022-09-22T13:17:33.984Z,110
2022-09-22T13:18:33.975Z,105
2022-09-22T13:19:33.950Z,100
2022-09-22T13:20:33.948Z,105
2022-09-22T13:21:34.469Z,95
2022-09-22T13:22:34.176Z,90
2022-09-22T13:23:34.273Z,100
2022-09-22T13:24:36.263Z,105
2022-09-22T13:25:33.936Z,105
2022-09-22T13:26:34.150Z,105
2022-09-22T13:27:33.873Z,110
2022-09-22T13:28:33.615Z,115
2022-09-22T13:29:33.610Z,115
2022-09-22T13:30:34.570Z,110
2022-09-22T13:31:33.885Z,100
2022-09-22T13:32:34.084Z,105
2022-09-22T13:33:34.091Z,100
2022-09-22T13:34:34.322Z,100
2022-09-22T13:35:33.814Z,105
2022-09-22T13:36:33.581Z,105
2022-09-22T13:37:33.534Z,110
2022-09-22T13:38:33.806Z,120
2022-09-22T13:39:34.135Z,125
2022-09-22T13:40:33.982Z,125
2022-09-22T13:41:34.288Z,120
2022-09-22T13:42:33.555Z,115
2022-09-22T13:43:33.984Z,115
2022-09-22T13:44:33.724Z,120
2022-09-22T13:45:33.793Z,115
2022-09-22T13:46:33.557Z,115
2022-09-22T13:47:33.445Z,110
2022-09-22T13:48:33.949Z,110
2022-09-22T13:49:33.684Z,100
2022-09-22T13:50:33.929Z,100
2022-09-22T13:51:33.420Z,85
2022-09-22T13:52:33.671Z,85
2022-09-22T13:53:33.897Z,90
2022-09-22T13:54:33.664Z,90
2022-09-22T13:55:34.481Z,90
2022-09-22T13:56:33.897Z,90
2022-09-22T13:57:34.172Z,90
2022-09-22T13:58:34.105Z,90
2022-09-22T13:59:33.850Z,90
2022-09-22T14:00:38.192Z,90
2022-09-22T14:01:34.213Z,95
2022-09-22T14:02:40.124Z,100
2022-09-22T14:03:33.808Z,100
2022-09-22T14:04:34.061Z,100
2022-09-22T14:05:33.273Z,100
2022-09-22T14:06:33.309Z,95
2022-09-22T14:07:36.138Z,90
2022-09-22T14:08:33.253Z,85
2022-09-22T14:09:33.236Z,85
2022-09-22T14:10:33.745Z,80
2022-09-22T14:11:34.107Z,80
2022-09-22T14:12:33.468Z,80
2022-09-22T14:13:34.009Z,80
2022-09-22T14:14:33.213Z,80
2022-09-22T14:15:33.231Z,85
2022-09-22T14:16:33.651Z,80
2022-09-22T14:17:33.158Z,80
2022-09-22T14:18:33.430Z,80
2022-09-22T14:19:33.428Z,80
2022-09-22T14:20:33.689Z,80
2022-09-22T14:21:33.633Z,80
2022-09-22T14:22:33.658Z,75
2022-09-22T14:23:33.364Z,80
2022-09-22T14:24:33.630Z,80
2022-09-22T14:25:33.610Z,80
2022-09-22T14:26:33.583Z,85
2022-09-22T14:27:33.938Z,85
2022-09-22T14:28:33.842Z,85
2022-09-22T14:29:33.124Z,90
2022-09-22T14:30:33.055Z,95